Time;durP1;ratioP1;P1;durP2;ratioP2;P2;SDS_P1;SDS_P2;PMS_P1;PMS_P2;Temp;Humidity;BMP_temperature;BMP_pressure;BME280_temperature;BME280_humidity;BME280_pressure;Samples;Min_cycle;Max_cycle;Signal;HPM_P1;HPM_P2
2021/07/07 07:17:19;;;;;;;11.70;4.20;;;19.80;99.90;;;;;;12075816;27;20391;-58
2021/07/07 07:23:06;;;;;;;12.52;3.78;;;20.30;99.90;;;;;;11971926;28;20523;-58
2021/07/07 07:28:52;;;;;;;8.70;3.70;;;21.00;99.90;;;;;;12017256;27;20045;-58
2021/07/07 07:34:41;;;;;;;14.38;4.05;;;21.20;99.90;;;;;;11993106;28;20057;-74
2021/07/07 07:40:35;;;;;;;14.48;4.07;;;21.30;99.90;;;;;;11993573;28;20068;-61
2021/07/07 07:46:22;;;;;;;13.77;3.78;;;21.60;99.90;;;;;;12016521;27;20032;-65
2021/07/07 07:52:10;;;;;;;16.95;4.25;;;21.80;99.90;;;;;;12016869;27;20460;-60
2021/07/07 07:57:57;;;;;;;10.82;3.75;;;21.90;99.90;;;;;;12012720;27;20061;-60
2021/07/07 08:03:44;;;;;;;6.57;3.30;;;21.90;99.90;;;;;;12012998;27;20045;-60
2021/07/07 08:09:33;;;;;;;11.55;3.80;;;21.90;99.90;;;;;;12017281;27;21155;-61
2021/07/07 08:15:20;;;;;;;8.45;3.40;;;22.20;99.90;;;;;;12020360;27;20051;-60
2021/07/07 08:21:07;;;;;;;10.02;3.47;;;22.20;98.80;;;;;;12052940;27;20049;-72
2021/07/07 08:26:58;;;;;;;8.23;3.00;;;22.10;99.30;;;;;;12020754;27;20123;-61
2021/07/07 08:32:45;;;;;;;7.45;2.95;;;21.90;99.60;;;;;;12007931;28;20067;-62
2021/07/07 08:38:31;;;;;;;10.02;3.42;;;21.80;98.40;;;;;;12020532;28;20512;-62
2021/07/07 08:44:20;;;;;;;11.38;3.42;;;21.60;99.20;;;;;;11989962;28;20075;-62
2021/07/07 08:50:08;;;;;;;9.30;3.60;;;21.90;98.90;;;;;;11977179;28;20048;-62
2021/07/07 08:55:55;;;;;;;7.68;3.28;;;22.00;98.40;;;;;;12020249;27;20052;-62
2021/07/07 09:18:33;;;;;;;10.23;3.72;;;22.00;98.20;;;;;;12080105;27;20568;-62
2021/07/07 09:24:24;;;;;;;13.73;3.88;;;22.30;98.50;;;;;;12103788;28;20135;-61
2021/07/07 09:30:13;;;;;;;8.02;3.13;;;22.40;98.00;;;;;;12098024;28;20070;-61
2021/07/07 09:36:21;;;;;;;14.30;3.85;;;22.70;97.80;;;;;;12061561;28;20040;-60
2021/07/07 09:42:09;;;;;;;13.90;3.90;;;22.90;97.70;;;;;;12099100;27;20036;-61
2021/07/07 09:47:56;;;;;;;11.50;4.15;;;22.90;97.70;;;;;;12110732;27;20655;-60
2021/07/07 09:53:44;;;;;;;11.77;3.60;;;23.20;97.00;;;;;;12074359;27;20764;-61
2021/07/07 09:59:31;;;;;;;7.68;3.55;;;23.50;96.70;;;;;;12083829;27;20512;-61
2021/07/07 10:05:20;;;;;;;10.40;3.75;;;23.70;94.90;;;;;;12066622;28;20063;-61
2021/07/07 10:11:08;;;;;;;9.23;3.13;;;23.70;94.80;;;;;;12107801;27;20051;-61
2021/07/07 10:16:56;;;;;;;12.23;3.45;;;23.70;95.60;;;;;;12126187;27;20081;-61
2021/07/07 10:22:43;;;;;;;8.85;3.25;;;23.80;95.60;;;;;;12156359;27;20417;-61
2021/07/07 10:28:32;;;;;;;6.25;3.05;;;24.10;94.20;;;;;;12178025;27;20747;-60
2021/07/07 10:34:20;;;;;;;9.63;3.50;;;24.10;92.30;;;;;;12173580;27;20042;-61
2021/07/07 10:40:27;;;;;;;6.53;2.70;;;24.20;92.30;;;;;;12171961;27;20100;-61
2021/07/07 10:46:51;;;;;;;8.88;3.40;;;24.10;91.50;;;;;;12173328;27;20051;-60
2021/07/07 10:52:44;;;;;;;9.25;3.70;;;23.90;92.80;;;;;;12165967;27;20043;-61
2021/07/07 10:58:34;;;;;;;13.98;3.75;;;23.80;93.10;;;;;;12168216;27;20063;-67
2021/07/07 11:04:33;;;;;;;6.80;3.65;;;23.90;93.60;;;;;;12170517;27;20055;-59
2021/07/07 11:10:23;;;;;;;8.30;3.90;;;23.60;93.70;;;;;;12172444;27;20067;-60
2021/07/07 11:16:12;;;;;;;14.57;4.32;;;23.60;93.90;;;;;;12107837;27;20044;-68
2021/07/07 11:22:10;;;;;;;8.70;3.63;;;23.20;96.00;;;;;;12075374;28;20446;-59
2021/07/07 11:27:58;;;;;;;10.15;4.20;;;22.80;97.70;;;;;;12071717;28;20044;-59
2021/07/07 11:33:44;;;;;;;12.85;5.13;;;22.70;99.90;;;;;;12072315;28;20055;-59
2021/07/07 11:39:33;;;;;;;9.95;4.95;;;22.60;99.90;;;;;;12073198;28;20052;-60
2021/07/07 11:45:21;;;;;;;11.27;4.88;;;22.40;99.90;;;;;;12072712;28;21775;-59
2021/07/07 11:51:13;;;;;;;12.52;5.00;;;22.70;99.90;;;;;;12075400;28;20087;-60
2021/07/07 11:57:02;;;;;;;10.50;4.47;;;23.10;99.90;;;;;;12072446;28;20088;-60
2021/07/07 12:02:51;;;;;;;13.45;4.05;;;23.30;99.90;;;;;;12072681;28;20540;-60
2021/07/07 12:08:39;;;;;;;8.68;4.30;;;23.20;99.90;;;;;;12077827;28;20036;-60
2021/07/07 12:14:28;;;;;;;9.07;4.05;;;23.20;99.90;;;;;;12101649;27;20071;-59
2021/07/07 12:20:16;;;;;;;9.75;4.38;;;23.30;99.90;;;;;;12166955;27;20051;-60
2021/07/07 12:26:04;;;;;;;13.52;4.35;;;23.40;99.90;;;;;;12171640;27;20043;-61
2021/07/07 12:31:57;;;;;;;9.77;4.32;;;23.50;99.90;;;;;;12171230;27;20055;-61
2021/07/07 12:37:44;;;;;;;13.05;4.07;;;23.70;99.90;;;;;;12129235;27;20054;-61
2021/07/07 12:43:40;;;;;;;6.05;3.60;;;23.70;99.90;;;;;;12169439;27;20071;-61
2021/07/07 12:49:40;;;;;;;8.70;3.40;;;23.60;99.90;;;;;;12167347;27;20039;-59
2021/07/07 12:55:28;;;;;;;7.60;3.25;;;23.60;99.90;;;;;;12164077;27;20119;-61
2021/07/07 13:01:25;;;;;;;5.00;2.88;;;24.10;99.90;;;;;;12168464;27;20047;-60
2021/07/07 13:07:13;;;;;;;7.25;2.63;;;24.40;98.20;;;;;;12166902;27;20535;-61
2021/07/07 13:13:20;;;;;;;4.13;2.17;;;24.80;98.30;;;;;;12163188;27;20055;-69
2021/07/07 13:19:11;;;;;;;4.43;2.00;;;25.30;94.90;;;;;;12170448;27;20058;-60
2021/07/07 13:25:01;;;;;;;6.93;2.38;;;25.10;93.40;;;;;;12165999;27;20047;-61
2021/07/07 13:30:48;;;;;;;9.02;2.40;;;25.10;93.40;;;;;;12166279;27;20401;-61
2021/07/07 13:36:36;;;;;;;5.13;1.90;;;25.30;92.80;;;;;;12167630;27;20047;-61
2021/07/07 13:42:26;;;;;;;4.50;1.90;;;25.20;90.70;;;;;;12163881;27;20053;-61
2021/07/07 13:48:13;;;;;;;2.85;2.10;;;24.80;91.80;;;;;;12166367;27;20059;-61
2021/07/07 13:54:00;;;;;;;3.20;2.15;;;24.70;92.00;;;;;;12173268;27;20055;-58
2021/07/07 13:59:48;;;;;;;3.70;1.80;;;24.50;93.40;;;;;;12173859;27;20416;-61
2021/07/07 14:05:35;;;;;;;2.45;1.50;;;24.80;91.80;;;;;;12178820;27;20079;-61
2021/07/07 14:11:22;;;;;;;2.20;1.38;;;25.00;90.20;;;;;;12177076;27;20040;-61
2021/07/07 14:17:10;;;;;;;2.88;1.73;;;25.40;88.00;;;;;;12178875;27;20047;-60
2021/07/07 14:22:57;;;;;;;8.93;2.47;;;25.80;88.60;;;;;;12179049;27;20055;-61
2021/07/07 14:28:45;;;;;;;3.47;1.73;;;26.00;88.20;;;;;;12178763;27;20055;-61
2021/07/07 14:34:33;;;;;;;2.38;1.48;;;26.40;87.80;;;;;;12174441;27;20051;-60
2021/07/07 14:40:20;;;;;;;1.83;1.50;;;26.50;85.10;;;;;;12174889;27;20420;-60
2021/07/07 14:46:07;;;;;;;2.75;1.63;;;26.40;82.80;;;;;;12176361;27;20055;-59
2021/07/07 14:51:55;;;;;;;3.20;1.63;;;26.00;83.70;;;;;;12175766;27;20519;-60
2021/07/07 14:57:42;;;;;;;3.03;1.75;;;25.50;84.10;;;;;;12172406;27;20036;-60
2021/07/07 15:03:29;;;;;;;4.82;1.80;;;25.30;85.40;;;;;;12171691;27;20516;-60
2021/07/07 15:09:17;;;;;;;2.40;1.67;;;25.30;86.70;;;;;;12117344;27;20059;-60
2021/07/07 15:15:05;;;;;;;2.22;1.38;;;26.00;85.50;;;;;;12200804;27;20118;-60
2021/07/07 15:20:52;;;;;;;2.30;1.50;;;26.50;78.10;;;;;;12211628;27;20035;-60
2021/07/07 15:26:41;;;;;;;2.58;1.52;;;26.80;78.90;;;;;;12211447;27;20047;-60
2021/07/07 15:32:27;;;;;;;2.15;1.75;;;26.50;75.90;;;;;;12210938;27;20043;-61
2021/07/07 15:38:14;;;;;;;1.67;1.30;;;26.40;78.70;;;;;;12210001;27;20039;-60
2021/07/07 15:44:03;;;;;;;2.88;1.42;;;26.40;75.60;;;;;;12209856;27;20497;-61
2021/07/07 15:49:49;;;;;;;2.25;1.60;;;26.40;74.60;;;;;;12209651;27;20516;-61
2021/07/07 15:55:37;;;;;;;4.97;1.77;;;28.30;71.40;;;;;;12211406;27;20420;-60
2021/07/07 16:01:25;;;;;;;1.95;1.50;;;27.70;68.90;;;;;;12209794;27;20118;-61
2021/07/07 16:07:12;;;;;;;2.63;1.40;;;29.50;65.50;;;;;;12178362;27;20090;-62
2021/07/07 16:12:59;;;;;;;3.60;1.50;;;32.30;61.40;;;;;;12169451;27;20039;-59
2021/07/07 16:18:47;;;;;;;1.95;1.27;;;33.70;53.00;;;;;;12170898;27;20055;-60
2021/07/07 16:24:34;;;;;;;2.67;1.15;;;32.90;55.20;;;;;;12171688;27;20050;-60
2021/07/07 16:30:21;;;;;;;1.50;1.40;;;32.50;54.20;;;;;;12169789;27;20546;-61
2021/07/07 16:36:09;;;;;;;3.10;1.50;;;33.80;53.90;;;;;;12168903;27;20051;-60
2021/07/07 16:41:56;;;;;;;2.33;1.42;;;35.30;49.20;;;;;;12168809;27;20047;-61
2021/07/07 16:47:43;;;;;;;2.33;1.60;;;35.80;49.10;;;;;;12170190;27;20071;-61
2021/07/07 16:53:31;;;;;;;2.45;1.60;;;35.80;47.30;;;;;;12166843;27;20051;-61
2021/07/07 16:59:18;;;;;;;2.60;1.38;;;35.60;47.30;;;;;;12165758;27;20058;-61
2021/07/07 17:05:06;;;;;;;2.05;1.30;;;34.80;46.70;;;;;;12169507;27;20436;-61
2021/07/07 17:10:54;;;;;;;2.92;1.30;;;36.80;45.00;;;;;;12170852;27;20071;-61
2021/07/07 17:16:41;;;;;;;1.35;0.90;;;39.00;40.90;;;;;;12165610;27;20070;-59
2021/07/07 17:22:28;;;;;;;3.28;1.00;;;39.50;36.20;;;;;;12167258;27;20066;-61
2021/07/07 17:28:16;;;;;;;1.35;0.98;;;38.80;35.50;;;;;;12174028;27;20047;-61
2021/07/07 17:34:03;;;;;;;6.57;1.98;;;36.60;38.30;;;;;;12176212;27;20058;-60
2021/07/07 17:39:50;;;;;;;2.65;1.08;;;33.30;42.60;;;;;;12178038;27;20432;-60
2021/07/07 17:45:39;;;;;;;1.77;1.30;;;33.10;44.70;;;;;;12179189;27;20043;-61
2021/07/07 17:51:26;;;;;;;1.40;1.30;;;36.60;40.20;;;;;;12176165;27;20446;-61
2021/07/07 17:57:13;;;;;;;2.42;1.02;;;38.60;37.30;;;;;;12174615;27;20062;-60
2021/07/07 18:03:01;;;;;;;2.03;1.02;;;38.80;34.80;;;;;;12172233;27;20043;-61
2021/07/07 18:08:48;;;;;;;4.25;0.80;;;38.80;34.20;;;;;;12210051;27;20043;-60
2021/07/07 18:14:35;;;;;;;2.47;1.10;;;38.90;34.20;;;;;;12207246;27;20431;-59
2021/07/07 18:20:24;;;;;;;1.92;1.10;;;38.90;34.30;;;;;;12213364;27;20534;-61
2021/07/07 18:26:10;;;;;;;0.95;0.93;;;38.70;34.20;;;;;;12213784;27;20043;-60
2021/07/07 18:31:57;;;;;;;1.48;0.70;;;38.70;33.90;;;;;;12212994;27;20057;-60
2021/07/07 18:37:46;;;;;;;3.25;0.98;;;38.70;34.20;;;;;;12209649;27;20489;-61
2021/07/07 18:43:32;;;;;;;3.25;0.90;;;38.20;34.80;;;;;;12214835;27;20088;-61
2021/07/07 18:49:19;;;;;;;7.15;1.25;;;37.80;36.10;;;;;;12211976;27;21420;-60
2021/07/07 18:55:09;;;;;;;3.08;1.02;;;37.40;38.20;;;;;;12211339;27;20046;-61
2021/07/07 19:00:56;;;;;;;3.28;0.90;;;36.90;39.50;;;;;;12212436;27;20043;-60
2021/07/07 19:06:43;;;;;;;4.30;0.80;;;36.30;40.90;;;;;;12183298;27;20047;-57
2021/07/07 19:12:49;;;;;;;3.15;1.10;;;35.60;41.50;;;;;;12164068;27;20070;-60
2021/07/07 19:18:36;;;;;;;2.92;1.10;;;34.40;43.10;;;;;;12163428;27;20073;-64
2021/07/07 19:24:23;;;;;;;6.20;1.60;;;32.00;46.50;;;;;;12172193;27;20039;-59
2021/07/07 19:30:16;;;;;;;3.25;1.10;;;29.80;50.30;;;;;;12208222;27;20416;-62
2021/07/07 19:36:03;;;;;;;1.63;1.30;;;28.30;54.30;;;;;;12207255;27;20130;-59
2021/07/07 19:41:50;;;;;;;1.73;1.20;;;27.40;56.00;;;;;;12209770;27;20140;-60
2021/07/07 19:47:54;;;;;;;3.35;1.38;;;26.60;57.40;;;;;;12209501;27;20050;-60
2021/07/07 19:53:41;;;;;;;4.50;1.35;;;26.10;59.30;;;;;;12209688;27;20039;-61
2021/07/07 19:59:28;;;;;;;7.03;1.40;;;25.70;59.20;;;;;;12209018;27;20039;-60
2021/07/07 20:05:17;;;;;;;2.15;1.50;;;25.40;60.70;;;;;;12191016;27;20059;-60
2021/07/07 20:11:05;;;;;;;1.95;1.60;;;25.20;60.40;;;;;;12172362;27;20055;-59
2021/07/07 20:16:52;;;;;;;4.30;1.52;;;25.00;61.20;;;;;;12172415;27;20107;-59
2021/07/07 20:22:40;;;;;;;3.63;1.88;;;24.90;62.00;;;;;;12161680;27;20520;-59
2021/07/07 20:28:32;;;;;;;3.08;1.55;;;24.60;63.40;;;;;;12143785;27;20062;-60
2021/07/07 20:34:20;;;;;;;4.32;1.42;;;24.40;63.30;;;;;;12187370;27;20039;-60
2021/07/07 20:40:10;;;;;;;5.10;1.50;;;24.20;64.10;;;;;;12207284;27;20043;-60
2021/07/07 20:45:59;;;;;;;2.80;1.38;;;24.20;64.30;;;;;;12207098;27;20046;-59
2021/07/07 20:51:46;;;;;;;6.35;1.33;;;24.10;64.30;;;;;;12207392;27;20036;-60
2021/07/07 20:57:42;;;;;;;3.85;1.30;;;23.90;65.30;;;;;;12207020;27;20046;-60
2021/07/07 21:03:29;;;;;;;4.55;1.85;;;23.70;65.90;;;;;;12199678;27;20054;-60
2021/07/07 21:09:16;;;;;;;2.35;1.73;;;23.70;66.70;;;;;;12207050;28;20047;-59
2021/07/07 21:15:06;;;;;;;6.07;2.40;;;23.60;66.40;;;;;;12205680;27;20047;-59
2021/07/07 21:20:53;;;;;;;6.45;1.65;;;23.40;66.60;;;;;;12205959;27;20497;-59
2021/07/07 21:26:40;;;;;;;3.38;1.70;;;23.30;67.10;;;;;;12207304;27;20043;-59
2021/07/07 21:32:28;;;;;;;7.50;1.92;;;23.20;67.50;;;;;;12206778;27;20057;-60
2021/07/07 21:38:15;;;;;;;6.80;1.55;;;23.10;67.90;;;;;;12206176;28;20035;-59
2021/07/07 21:44:02;;;;;;;7.85;2.17;;;23.00;68.40;;;;;;12206804;28;20039;-60
2021/07/07 21:49:52;;;;;;;5.43;1.98;;;22.80;68.80;;;;;;12205913;27;20054;-59
2021/07/07 21:55:38;;;;;;;4.90;1.98;;;22.70;69.60;;;;;;12173399;27;20054;-59
2021/07/07 22:01:25;;;;;;;4.07;2.20;;;22.60;70.40;;;;;;12208284;27;20031;-60
2021/07/07 22:13:57;;;;;;;5.50;2.03;;;22.60;71.20;;;;;;12209276;27;20097;-60
2021/07/07 22:19:44;;;;;;;8.77;1.77;;;22.50;71.10;;;;;;12214862;27;20054;-59
2021/07/07 22:25:31;;;;;;;5.43;1.88;;;22.40;72.60;;;;;;12218183;27;20076;-60
2021/07/07 22:31:20;;;;;;;4.63;1.83;;;22.40;71.60;;;;;;12215485;27;20031;-60
2021/07/07 22:37:07;;;;;;;3.67;1.88;;;22.30;72.40;;;;;;12215029;27;20039;-59
2021/07/07 22:42:54;;;;;;;6.03;2.13;;;22.20;72.40;;;;;;12212060;27;20126;-60
2021/07/07 22:48:43;;;;;;;4.50;2.00;;;22.20;73.10;;;;;;12213400;27;20051;-60
2021/07/07 22:54:30;;;;;;;5.95;2.30;;;22.20;73.50;;;;;;12213116;27;20122;-59
2021/07/07 23:00:18;;;;;;;4.88;2.30;;;22.10;73.50;;;;;;12212226;27;20051;-59
2021/07/07 23:06:06;;;;;;;3.35;2.03;;;22.00;74.10;;;;;;12189605;27;20050;-59
2021/07/07 23:11:53;;;;;;;4.22;1.73;;;22.00;74.40;;;;;;12211591;27;20039;-59
2021/07/07 23:17:40;;;;;;;4.00;2.05;;;22.00;74.70;;;;;;12209603;27;20035;-59
2021/07/07 23:23:29;;;;;;;4.70;2.08;;;21.90;75.10;;;;;;12211169;27;20196;-59
2021/07/07 23:29:16;;;;;;;10.45;2.42;;;21.70;75.30;;;;;;12210578;27;20039;-59
2021/07/07 23:35:03;;;;;;;6.63;2.30;;;21.60;75.60;;;;;;12210977;27;20047;-60
2021/07/07 23:40:55;;;;;;;8.38;2.08;;;21.50;75.60;;;;;;12210424;27;20703;-58
2021/07/07 23:46:42;;;;;;;6.65;1.83;;;21.40;75.80;;;;;;12210638;27;20035;-58
2021/07/07 23:52:29;;;;;;;4.47;2.00;;;21.40;76.30;;;;;;12211690;27;20515;-58
